Time;durP1;ratioP1;P1;durP2;ratioP2;P2;SDS_P1;SDS_P2;PMS_P1;PMS_P2;Temp;Humidity;BMP_temperature;BMP_pressure;BME280_temperature;BME280_humidity;BME280_pressure;Samples;Min_cycle;Max_cycle;Signal;HPM_P1;HPM_P2
2021/12/21 00:00:14;;;;;;;;;;;-3.90;99.90;;;;;;5093611;27;19998;-67
2021/12/21 00:02:41;;;;;;;;;;;-4.00;99.90;;;;;;5102509;28;19927;-67
2021/12/21 00:05:09;;;;;;;;;;;-4.00;99.90;;;;;;5091327;28;19928;-67
2021/12/21 00:07:50;;;;;;;;;;;-4.10;99.90;;;;;;5096151;28;19924;-67
2021/12/21 00:10:18;;;;;;;;;;;-4.20;99.90;;;;;;5099244;28;19924;-67
2021/12/21 00:13:07;;;;;;;;;;;-4.20;99.90;;;;;;5099036;28;19924;-67
2021/12/21 00:25:45;;;;;;;;;;;-4.20;99.90;;;;;;5098557;28;19927;-67
2021/12/21 00:28:14;;;;;;;;;;;-4.20;99.90;;;;;;5099781;28;19934;-67
2021/12/21 00:30:44;;;;;;;;;;;-4.20;99.90;;;;;;5100803;28;20449;-67
2021/12/21 00:33:11;;;;;;;;;;;-4.20;99.90;;;;;;5094476;28;19932;-67
2021/12/21 00:35:38;;;;;;;;;;;-4.20;99.90;;;;;;5094916;28;20023;-67
2021/12/21 00:38:05;;;;;;;;;;;-4.20;99.90;;;;;;5096461;28;19930;-67
2021/12/21 00:40:32;;;;;;;;;;;-4.20;99.90;;;;;;5112632;28;20027;-67
2021/12/21 00:42:58;;;;;;;;;;;-4.20;99.90;;;;;;5108403;28;19947;-67
2021/12/21 00:45:25;;;;;;;;;;;-4.20;99.90;;;;;;5101789;28;20321;-67
2021/12/21 00:47:52;;;;;;;;;;;-4.20;99.90;;;;;;5090144;28;19928;-67
2021/12/21 00:50:22;;;;;;;;;;;-4.20;99.90;;;;;;5100108;28;19939;-67
2021/12/21 00:52:50;;;;;;;;;;;-4.20;99.90;;;;;;5086732;28;20026;-67
2021/12/21 00:55:17;;;;;;;;;;;-4.30;99.90;;;;;;5105767;28;20583;-67
2021/12/21 00:57:44;;;;;;;;;;;-4.30;99.90;;;;;;5105610;28;19928;-67
2021/12/21 01:00:12;;;;;;;;;;;-4.40;99.90;;;;;;5091207;28;19931;-67
2021/12/21 01:02:41;;;;;;;;;;;-4.50;99.90;;;;;;5097236;28;19924;-66
2021/12/21 01:05:16;;;;;;;;;;;-4.50;99.90;;;;;;5095825;28;19957;-67
2021/12/21 01:07:47;;;;;;;;;;;-4.60;99.90;;;;;;5095383;28;20578;-67
2021/12/21 01:18:37;;;;;;;;;;;-4.70;99.90;;;;;;5108110;28;19927;-67
2021/12/21 01:23:53;;;;;;;;;;;-4.80;99.90;;;;;;5111449;27;19955;-68
2021/12/21 01:36:57;;;;;;;;;;;-5.50;99.90;;;;;;5092606;28;19920;-67
2021/12/21 01:42:01;;;;;;;;;;;-5.70;99.90;;;;;;5106732;27;19920;-67
2021/12/21 01:49:58;;;;;;;;;;;-5.90;99.90;;;;;;5097071;28;19920;-67
2021/12/21 01:52:26;;;;;;;;;;;-5.90;99.90;;;;;;5102020;28;19950;-67
2021/12/21 01:54:53;;;;;;;;;;;-5.70;99.90;;;;;;5109500;28;20006;-67
2021/12/21 01:57:20;;;;;;;;;;;-5.60;99.90;;;;;;5096592;27;20535;-67
2021/12/21 01:59:47;;;;;;;;;;;-5.40;99.90;;;;;;5100417;28;19919;-68
2021/12/21 02:02:16;;;;;;;;;;;-5.40;99.90;;;;;;5095734;28;19970;-67
2021/12/21 02:04:43;;;;;;;;;;;-5.30;99.90;;;;;;5096611;28;19965;-68
2021/12/21 02:07:12;;;;;;;;;;;-5.20;99.90;;;;;;5095431;28;19924;-68
2021/12/21 02:09:40;;;;;;;;;;;-5.20;99.90;;;;;;5095291;28;19920;-67
2021/12/21 02:12:11;;;;;;;;;;;-5.20;99.90;;;;;;5112261;27;19920;-68
2021/12/21 02:14:38;;;;;;;;;;;-5.30;99.90;;;;;;5107198;28;19920;-67
2021/12/21 02:17:49;;;;;;;;;;;-5.30;99.90;;;;;;5105385;28;20006;-67
2021/12/21 02:22:59;;;;;;;;;;;-5.20;99.90;;;;;;5092821;28;19920;-67
2021/12/21 02:28:32;;;;;;;;;;;-5.20;99.90;;;;;;5100817;28;19920;-67
2021/12/21 02:30:48;;;;;;;;;;;-5.20;99.90;;;;;;5095349;27;19923;-67
2021/12/21 02:33:15;;;;;;;;;;;-5.10;99.90;;;;;;5107304;28;19923;-67
2021/12/21 02:35:42;;;;;;;;;;;-5.10;99.90;;;;;;5100962;28;20421;-67
2021/12/21 02:38:09;;;;;;;;;;;-5.20;99.90;;;;;;5104551;28;19930;-67
2021/12/21 02:40:35;;;;;;;;;;;-5.30;99.90;;;;;;5105733;28;20407;-67
2021/12/21 02:43:03;;;;;;;;;;;-5.40;99.90;;;;;;5095103;28;19984;-67
2021/12/21 02:45:30;;;;;;;;;;;-5.50;99.90;;;;;;5102702;28;20014;-67
2021/12/21 02:47:56;;;;;;;;;;;-5.70;99.90;;;;;;5100869;27;19920;-67
2021/12/21 02:50:24;;;;;;;;;;;-5.80;99.90;;;;;;5100395;28;20104;-67
2021/12/21 02:52:51;;;;;;;;;;;-5.70;99.90;;;;;;5101912;28;19930;-67
2021/12/21 02:55:20;;;;;;;;;;;-5.70;99.90;;;;;;5091559;28;19924;-66
2021/12/21 02:57:49;;;;;;;;;;;-5.50;99.90;;;;;;5099452;28;20279;-67
2021/12/21 03:00:16;;;;;;;;;;;-5.40;99.90;;;;;;5091774;27;19920;-67
2021/12/21 03:02:43;;;;;;;;;;;-5.40;99.90;;;;;;5097766;27;19920;-67
2021/12/21 03:05:10;;;;;;;;;;;-5.30;99.90;;;;;;5093998;28;19920;-67
2021/12/21 03:10:09;;;;;;;;;;;-5.10;99.90;;;;;;5101061;28;19920;-66
2021/12/21 03:15:19;;;;;;;;;;;-5.00;99.90;;;;;;5104963;27;20500;-66
2021/12/21 03:17:46;;;;;;;;;;;-5.00;99.90;;;;;;5104953;28;19923;-66
2021/12/21 03:20:13;;;;;;;;;;;-4.90;99.90;;;;;;5107910;27;19919;-66
2021/12/21 03:22:40;;;;;;;;;;;-4.90;99.90;;;;;;5099583;28;19920;-66
2021/12/21 03:25:06;;;;;;;;;;;-5.00;99.90;;;;;;5095589;28;19919;-66
2021/12/21 03:27:33;;;;;;;;;;;-5.00;99.90;;;;;;5092060;28;20007;-66
2021/12/21 03:30:00;;;;;;;;;;;-5.10;99.90;;;;;;5103082;28;19919;-66
2021/12/21 03:32:27;;;;;;;;;;;-5.20;99.90;;;;;;5098638;28;19955;-66
2021/12/21 03:34:56;;;;;;;;;;;-5.20;99.90;;;;;;5099077;28;19920;-66
2021/12/21 03:37:22;;;;;;;;;;;-5.10;99.90;;;;;;5091628;28;20011;-66
2021/12/21 03:39:52;;;;;;;;;;;-5.10;99.90;;;;;;5102379;28;20444;-66
2021/12/21 03:42:19;;;;;;;;;;;-5.10;99.90;;;;;;5110600;27;19920;-67
2021/12/21 03:44:47;;;;;;;;;;;-5.20;99.90;;;;;;5102943;28;20068;-67
2021/12/21 03:47:16;;;;;;;;;;;-5.10;99.90;;;;;;5092540;28;19931;-67
2021/12/21 03:52:09;;;;;;;;;;;-5.20;99.90;;;;;;5092394;28;19926;-64
2021/12/21 03:54:37;;;;;;;;;;;-5.10;99.90;;;;;;5090830;28;19927;-66
2021/12/21 03:57:04;;;;;;;;;;;-5.10;99.90;;;;;;5092054;28;19940;-67
2021/12/21 03:59:31;;;;;;;;;;;-5.10;99.90;;;;;;5099492;28;19920;-66
2021/12/21 04:01:58;;;;;;;;;;;-5.00;99.90;;;;;;5097913;28;20002;-67
2021/12/21 04:04:25;;;;;;;;;;;-5.10;99.90;;;;;;5096665;28;19965;-67
2021/12/21 04:06:52;;;;;;;;;;;-5.10;99.90;;;;;;5103206;27;20343;-65
2021/12/21 04:09:19;;;;;;;;;;;-5.20;99.90;;;;;;5103913;27;19924;-66
2021/12/21 04:11:47;;;;;;;;;;;-5.20;99.90;;;;;;5094136;28;20052;-66
2021/12/21 04:14:16;;;;;;;;;;;-5.20;99.90;;;;;;5098554;28;19924;-65
2021/12/21 04:16:43;;;;;;;;;;;-5.30;99.90;;;;;;5100514;28;19919;-66
2021/12/21 04:19:11;;;;;;;;;;;-5.30;99.90;;;;;;5090712;28;20364;-65
2021/12/21 04:21:37;;;;;;;;;;;-5.30;99.90;;;;;;5090309;28;19919;-65
2021/12/21 04:24:05;;;;;;;;;;;-5.40;99.90;;;;;;5092248;28;20007;-65
2021/12/21 04:26:31;;;;;;;;;;;-5.40;99.90;;;;;;5110714;28;19920;-65
2021/12/21 04:28:58;;;;;;;;;;;-5.50;99.90;;;;;;5107160;27;19919;-66
2021/12/21 04:31:28;;;;;;;;;;;-5.50;99.90;;;;;;5092430;28;19924;-66
2021/12/21 04:33:54;;;;;;;;;;;-5.60;99.90;;;;;;5103111;28;20133;-65
2021/12/21 04:36:22;;;;;;;;;;;-5.70;99.90;;;;;;5104921;28;19927;-65
2021/12/21 04:38:50;;;;;;;;;;;-5.70;99.90;;;;;;5108498;28;19928;-65
2021/12/21 04:41:26;;;;;;;;;;;-5.70;99.90;;;;;;5108070;28;19920;-65
2021/12/21 04:43:55;;;;;;;;;;;-5.70;99.90;;;;;;5105568;28;19942;-65
2021/12/21 04:46:23;;;;;;;;;;;-5.80;99.90;;;;;;5096823;28;20014;-65
2021/12/21 04:48:50;;;;;;;;;;;-5.90;99.90;;;;;;5097220;28;19920;-65
2021/12/21 04:51:17;;;;;;;;;;;-5.90;99.90;;;;;;5096863;28;19920;-65
2021/12/21 04:53:44;;;;;;;;;;;-5.80;99.90;;;;;;5103977;28;19919;-65
2021/12/21 04:56:10;;;;;;;;;;;-5.80;99.90;;;;;;5107383;28;19927;-65
2021/12/21 04:58:37;;;;;;;;;;;-5.80;99.90;;;;;;5096803;28;19920;-65
2021/12/21 05:01:04;;;;;;;;;;;-5.90;99.90;;;;;;5101843;28;20261;-65
2021/12/21 05:03:31;;;;;;;;;;;-5.80;99.90;;;;;;5100191;27;20000;-65
2021/12/21 05:05:57;;;;;;;;;;;-5.50;99.90;;;;;;5104872;27;20021;-65
2021/12/21 05:08:29;;;;;;;;;;;-5.40;99.90;;;;;;5102013;27;20039;-65
2021/12/21 05:11:00;;;;;;;;;;;-5.30;99.90;;;;;;5099925;28;19919;-66
2021/12/21 05:13:30;;;;;;;;;;;-5.30;99.90;;;;;;5104388;28;19931;-65
2021/12/21 05:15:57;;;;;;;;;;;-5.40;99.90;;;;;;5111204;28;19920;-65
2021/12/21 05:18:24;;;;;;;;;;;-5.40;99.90;;;;;;5099725;28;19919;-65
2021/12/21 05:20:51;;;;;;;;;;;-5.40;99.90;;;;;;5095747;27;19953;-65
2021/12/21 05:23:18;;;;;;;;;;;-5.40;99.90;;;;;;5105823;28;19920;-65
2021/12/21 05:25:44;;;;;;;;;;;-5.50;99.90;;;;;;5111637;28;20552;-65
2021/12/21 05:28:12;;;;;;;;;;;-5.40;99.90;;;;;;5101534;28;19920;-65
2021/12/21 05:30:39;;;;;;;;;;;-5.40;99.90;;;;;;5096782;28;20332;-65
2021/12/21 05:33:07;;;;;;;;;;;-5.50;99.90;;;;;;5095703;28;19950;-65
2021/12/21 05:35:34;;;;;;;;;;;-5.50;99.90;;;;;;5105730;28;19927;-65
2021/12/21 05:38:05;;;;;;;;;;;-5.50;99.90;;;;;;5102784;28;19974;-66
2021/12/21 05:40:35;;;;;;;;;;;-5.50;99.90;;;;;;5103366;27;20395;-65
2021/12/21 05:43:02;;;;;;;;;;;-5.60;99.90;;;;;;5098986;27;20316;-65
2021/12/21 05:45:29;;;;;;;;;;;-5.70;99.90;;;;;;5105624;28;19922;-65
2021/12/21 05:47:56;;;;;;;;;;;-5.70;99.90;;;;;;5109185;28;20397;-66
2021/12/21 05:50:23;;;;;;;;;;;-5.70;99.90;;;;;;5100535;27;19978;-65
2021/12/21 05:52:50;;;;;;;;;;;-5.70;99.90;;;;;;5101381;28;19920;-66
2021/12/21 05:55:20;;;;;;;;;;;-5.70;99.90;;;;;;5098609;28;19954;-66
2021/12/21 05:57:47;;;;;;;;;;;-5.60;99.90;;;;;;5107508;28;19920;-65
2021/12/21 06:00:18;;;;;;;;;;;-5.60;99.90;;;;;;5096596;28;19934;-65
2021/12/21 06:02:45;;;;;;;;;;;-5.70;99.90;;;;;;5099772;27;19924;-65
2021/12/21 06:05:12;;;;;;;;;;;-5.70;99.90;;;;;;5102320;28;19920;-66
2021/12/21 06:07:39;;;;;;;;;;;-5.70;99.90;;;;;;5102188;28;19958;-65
2021/12/21 06:10:17;;;;;;;;;;;-5.80;99.90;;;;;;5095183;27;19928;-65
2021/12/21 06:26:14;;;;;;;;;;;-5.60;99.90;;;;;;5101812;27;19924;-66
2021/12/21 06:28:42;;;;;;;;;;;-5.60;99.90;;;;;;5090957;28;19930;-65
2021/12/21 06:31:09;;;;;;;;;;;-5.60;99.90;;;;;;5089632;28;20018;-65
2021/12/21 06:33:35;;;;;;;;;;;-5.60;99.90;;;;;;5094831;28;19928;-65
2021/12/21 06:36:02;;;;;;;;;;;-5.50;99.90;;;;;;5092141;28;19924;-65
2021/12/21 06:38:29;;;;;;;;;;;-5.50;99.90;;;;;;5096532;28;19920;-65
2021/12/21 06:40:56;;;;;;;;;;;-5.50;99.90;;;;;;5102950;27;20333;-65
2021/12/21 06:43:23;;;;;;;;;;;-5.40;99.90;;;;;;5093824;28;19930;-65
2021/12/21 06:46:04;;;;;;;;;;;-5.30;99.90;;;;;;5106446;28;19989;-66
2021/12/21 06:53:46;;;;;;;;;;;-5.10;99.90;;;;;;5094288;28;19963;-65
2021/12/21 06:56:13;;;;;;;;;;;-5.10;99.90;;;;;;5094730;28;19926;-65
2021/12/21 06:58:40;;;;;;;;;;;-5.20;99.90;;;;;;5105410;28;19924;-65
2021/12/21 07:01:06;;;;;;;;;;;-5.20;99.90;;;;;;5095740;28;19924;-65
2021/12/21 07:03:36;;;;;;;;;;;-5.30;99.90;;;;;;5093942;28;19923;-65
2021/12/21 07:06:05;;;;;;;;;;;-5.20;99.90;;;;;;5090474;28;20006;-66
2021/12/21 07:08:42;;;;;;;;;;;-5.20;99.90;;;;;;5101295;27;20374;-65
2021/12/21 07:11:26;;;;;;;;;;;-5.10;99.90;;;;;;5108837;28;19981;-65
2021/12/21 07:19:24;;;;;;;;;;;-5.10;99.90;;;;;;5096170;28;19920;-66
2021/12/21 07:21:51;;;;;;;;;;;-5.10;99.90;;;;;;5090436;28;19930;-66
2021/12/21 07:24:17;;;;;;;;;;;-5.10;99.90;;;;;;5100009;27;20382;-65
2021/12/21 07:26:44;;;;;;;;;;;-5.00;99.90;;;;;;5095185;28;19920;-65
2021/12/21 07:29:13;;;;;;;;;;;-5.00;99.90;;;;;;5104435;27;20378;-65
2021/12/21 07:31:40;;;;;;;;;;;-5.00;99.90;;;;;;5102041;27;19924;-66
2021/12/21 07:34:06;;;;;;;;;;;-5.10;99.90;;;;;;5092114;27;19938;-65
2021/12/21 07:36:34;;;;;;;;;;;-5.10;99.90;;;;;;5090735;28;19920;-65
2021/12/21 07:39:03;;;;;;;;;;;-5.00;99.90;;;;;;5102566;28;19920;-65
2021/12/21 07:41:30;;;;;;;;;;;-5.00;99.90;;;;;;5099486;27;19928;-65
2021/12/21 07:43:59;;;;;;;;;;;-5.00;99.90;;;;;;5090467;28;19928;-66
2021/12/21 07:46:26;;;;;;;;;;;-5.10;99.90;;;;;;5096651;28;20428;-66
2021/12/21 07:48:53;;;;;;;;;;;-5.10;99.90;;;;;;5095898;28;19920;-65
2021/12/21 07:51:20;;;;;;;;;;;-5.10;99.90;;;;;;5101281;27;19923;-66
2021/12/21 07:53:48;;;;;;;;;;;-5.00;99.90;;;;;;5109611;27;19924;-66
2021/12/21 07:56:16;;;;;;;;;;;-4.80;99.90;;;;;;5086125;28;19940;-66
2021/12/21 07:58:44;;;;;;;;;;;-4.70;99.90;;;;;;5102180;28;19919;-68
2021/12/21 08:01:11;;;;;;;;;;;-4.50;99.90;;;;;;5095321;28;19920;-69
2021/12/21 08:03:38;;;;;;;;;;;-4.20;99.90;;;;;;5090948;28;19931;-68
2021/12/21 08:06:07;;;;;;;;;;;-4.00;99.90;;;;;;5091370;28;19928;-69
2021/12/21 08:08:36;;;;;;;;;;;-3.80;99.90;;;;;;5096812;28;20263;-68
2021/12/21 08:13:35;;;;;;;;;;;-3.30;99.90;;;;;;5102301;28;20026;-66
2021/12/21 08:16:02;;;;;;;;;;;-3.10;99.90;;;;;;5089896;27;20410;-66
2021/12/21 08:18:29;;;;;;;;;;;-3.00;99.90;;;;;;5103320;28;19924;-67
2021/12/21 08:20:55;;;;;;;;;;;-2.90;99.90;;;;;;5100206;27;19924;-66
2021/12/21 08:23:22;;;;;;;;;;;-2.60;99.90;;;;;;5096885;28;19920;-67
2021/12/21 08:25:51;;;;;;;;;;;-2.50;99.90;;;;;;5108500;27;20042;-67
2021/12/21 08:28:18;;;;;;;;;;;-2.30;99.90;;;;;;5089805;28;19989;-69
2021/12/21 08:30:46;;;;;;;;;;;-2.00;99.90;;;;;;5095114;28;20411;-67
2021/12/21 08:33:13;;;;;;;;;;;-1.90;99.90;;;;;;5112326;27;20006;-67
2021/12/21 08:35:40;;;;;;;;;;;-1.70;99.90;;;;;;5090736;28;19959;-65
2021/12/21 08:38:13;;;;;;;;;;;-1.50;99.90;;;;;;5107311;28;19979;-65
2021/12/21 08:40:41;;;;;;;;;;;-1.30;99.90;;;;;;5096313;28;19978;-65
2021/12/21 08:43:14;;;;;;;;;;;-1.10;99.90;;;;;;5095133;28;19974;-65
2021/12/21 08:45:41;;;;;;;;;;;-1.00;99.90;;;;;;5091692;28;19930;-65
2021/12/21 08:48:09;;;;;;;;;;;-0.90;99.90;;;;;;5091286;28;20499;-66
2021/12/21 08:50:36;;;;;;;;;;;-0.80;99.90;;;;;;5098484;28;19927;-65
2021/12/21 08:53:03;;;;;;;;;;;-0.50;99.90;;;;;;5091181;28;19999;-65
2021/12/21 08:55:30;;;;;;;;;;;-0.30;99.90;;;;;;5095468;28;19930;-65
2021/12/21 08:57:56;;;;;;;;;;;-0.30;99.90;;;;;;5092686;28;19930;-66
2021/12/21 09:00:23;;;;;;;;;;;-0.20;99.90;;;;;;5089133;28;19930;-66
2021/12/21 09:02:50;;;;;;;;;;;0.00;99.90;;;;;;5092184;28;19924;-66
2021/12/21 09:05:20;;;;;;;;;;;0.00;99.90;;;;;;5092390;28;20324;-66
2021/12/21 09:07:48;;;;;;;;;;;0.20;99.90;;;;;;5098750;28;19930;-66
2021/12/21 09:10:18;;;;;;;;;;;0.40;99.90;;;;;;5090261;28;20367;-66
2021/12/21 09:12:45;;;;;;;;;;;0.50;99.90;;;;;;5089901;28;19974;-66
2021/12/21 09:15:12;;;;;;;;;;;0.40;99.90;;;;;;5090260;28;19955;-66
2021/12/21 09:17:40;;;;;;;;;;;0.60;99.90;;;;;;5091654;28;20014;-69
2021/12/21 09:20:08;;;;;;;;;;;1.20;99.90;;;;;;5098390;28;19932;-69
2021/12/21 09:22:48;;;;;;;;;;;1.50;99.90;;;;;;5098411;28;19949;-69
2021/12/21 09:25:15;;;;;;;;;;;1.90;99.90;;;;;;5096161;28;20636;-69
2021/12/21 09:27:42;;;;;;;;;;;2.10;99.90;;;;;;5104640;28;20333;-69
2021/12/21 09:30:10;;;;;;;;;;;2.50;99.90;;;;;;5092686;28;19925;-69
2021/12/21 09:32:36;;;;;;;;;;;2.50;99.90;;;;;;5104960;28;19924;-69
2021/12/21 09:35:04;;;;;;;;;;;2.90;99.90;;;;;;5106507;28;19924;-70
2021/12/21 09:37:31;;;;;;;;;;;3.00;99.90;;;;;;5111236;28;20350;-69
2021/12/21 09:39:59;;;;;;;;;;;3.10;99.90;;;;;;5097932;28;19924;-69
2021/12/21 09:42:29;;;;;;;;;;;3.20;99.90;;;;;;5091824;28;19928;-70
2021/12/21 09:44:57;;;;;;;;;;;3.70;99.90;;;;;;5101148;28;19924;-68
2021/12/21 09:47:26;;;;;;;;;;;4.20;99.90;;;;;;5097269;28;20541;-68
2021/12/21 09:49:54;;;;;;;;;;;4.80;99.90;;;;;;5094432;28;20006;-68
2021/12/21 09:52:22;;;;;;;;;;;4.90;99.90;;;;;;5103607;28;19931;-68
2021/12/21 09:54:49;;;;;;;;;;;4.50;99.90;;;;;;5095531;27;19934;-68
2021/12/21 09:57:17;;;;;;;;;;;4.00;99.90;;;;;;5111627;27;19928;-69
2021/12/21 09:59:44;;;;;;;;;;;4.00;99.90;;;;;;5106915;27;19930;-69
2021/12/21 10:02:13;;;;;;;;;;;4.20;99.90;;;;;;5104205;28;19932;-69
2021/12/21 10:04:48;;;;;;;;;;;4.30;99.90;;;;;;5099875;28;19931;-69
2021/12/21 10:07:16;;;;;;;;;;;4.60;99.90;;;;;;5111087;27;19932;-69
2021/12/21 10:09:47;;;;;;;;;;;4.50;99.90;;;;;;5111266;28;20453;-69
2021/12/21 10:12:24;;;;;;;;;;;4.70;99.90;;;;;;5094013;28;19924;-69
2021/12/21 10:15:21;;;;;;;;;;;4.70;99.90;;;;;;5110726;28;19928;-69
2021/12/21 10:17:57;;;;;;;;;;;4.50;99.90;;;;;;5060938;28;19925;-69
2021/12/21 10:20:29;;;;;;;;;;;5.00;99.90;;;;;;5067715;28;19932;-69
2021/12/21 10:22:56;;;;;;;;;;;5.40;99.90;;;;;;5057679;28;20025;-69
2021/12/21 10:25:24;;;;;;;;;;;5.90;99.90;;;;;;5064906;28;19937;-67
2021/12/21 10:27:50;;;;;;;;;;;6.00;99.90;;;;;;5065789;28;20032;-69
2021/12/21 10:30:20;;;;;;;;;;;5.80;99.90;;;;;;5067097;28;19924;-69
2021/12/21 10:32:51;;;;;;;;;;;5.80;99.90;;;;;;5067272;28;19934;-69
2021/12/21 10:35:18;;;;;;;;;;;5.50;99.90;;;;;;5077028;28;19924;-69
2021/12/21 10:37:48;;;;;;;;;;;5.30;99.90;;;;;;5079372;28;20268;-70
2021/12/21 10:40:20;;;;;;;;;;;5.70;99.90;;;;;;5066433;28;19924;-69
2021/12/21 10:42:49;;;;;;;;;;;6.10;99.90;;;;;;5067231;28;19924;-69
2021/12/21 10:45:17;;;;;;;;;;;6.30;99.90;;;;;;5067065;28;19932;-69
2021/12/21 10:47:45;;;;;;;;;;;6.80;99.90;;;;;;5065875;28;20011;-69
2021/12/21 10:50:12;;;;;;;;;;;7.10;99.90;;;;;;5045952;28;20024;-70
2021/12/21 10:52:47;;;;;;;;;;;7.30;99.90;;;;;;5064295;28;20345;-70
2021/12/21 10:55:13;;;;;;;;;;;7.40;99.90;;;;;;5096119;28;19928;-70
2021/12/21 10:57:41;;;;;;;;;;;8.00;99.90;;;;;;5092277;28;19956;-70
2021/12/21 11:00:14;;;;;;;;;;;8.20;99.90;;;;;;5103764;27;20481;-70
2021/12/21 11:02:41;;;;;;;;;;;8.50;99.90;;;;;;5098919;28;19924;-70
2021/12/21 11:05:11;;;;;;;;;;;8.60;99.90;;;;;;5098983;28;20390;-70
2021/12/21 11:10:16;;;;;;;;;;;7.90;99.90;;;;;;5092629;28;20298;-70
2021/12/21 11:13:06;;;;;;;;;;;7.90;99.90;;;;;;5096853;28;19924;-71
2021/12/21 11:15:34;;;;;;;;;;;8.10;99.90;;;;;;5100047;28;20023;-70
2021/12/21 11:18:21;;;;;;;;;;;7.70;99.90;;;;;;5095557;28;19924;-70
2021/12/21 11:20:49;;;;;;;;;;;8.10;99.90;;;;;;5099342;28;20449;-70
2021/12/21 11:23:17;;;;;;;;;;;8.70;99.90;;;;;;5091351;28;20019;-70
2021/12/21 11:25:46;;;;;;;;;;;8.80;99.90;;;;;;5097580;27;19927;-70
2021/12/21 11:28:26;;;;;;;;;;;8.70;99.90;;;;;;5087286;28;20016;-70
2021/12/21 11:30:57;;;;;;;;;;;9.20;99.90;;;;;;5096762;28;20005;-70
2021/12/21 11:33:25;;;;;;;;;;;9.40;99.90;;;;;;5098783;28;20035;-70
2021/12/21 11:38:38;;;;;;;;;;;10.30;99.90;;;;;;5087284;28;19932;-70
2021/12/21 11:41:05;;;;;;;;;;;10.40;99.90;;;;;;5089766;28;19939;-70
2021/12/21 11:43:39;;;;;;;;;;;9.80;99.90;;;;;;5094432;28;19923;-68
2021/12/21 11:46:07;;;;;;;;;;;8.80;99.90;;;;;;5093509;27;20811;-69
2021/12/21 11:48:37;;;;;;;;;;;8.70;99.90;;;;;;5093949;27;19935;-68
2021/12/21 11:51:06;;;;;;;;;;;8.20;99.90;;;;;;5098309;28;19934;-69
2021/12/21 11:53:33;;;;;;;;;;;8.50;99.90;;;;;;5091113;28;20445;-69
2021/12/21 11:56:00;;;;;;;;;;;8.90;99.90;;;;;;5093072;28;19979;-69
2021/12/21 11:58:32;;;;;;;;;;;8.40;99.90;;;;;;5091137;28;19931;-70
2021/12/21 12:00:59;;;;;;;;;;;8.70;99.90;;;;;;5090150;28;19927;-70
2021/12/21 12:03:27;;;;;;;;;;;9.00;99.90;;;;;;5087400;28;19947;-70
2021/12/21 12:06:01;;;;;;;;;;;9.40;99.90;;;;;;5088315;28;20015;-70
2021/12/21 12:08:54;;;;;;;;;;;9.70;99.90;;;;;;5098191;28;19932;-69
2021/12/21 12:11:22;;;;;;;;;;;9.70;99.90;;;;;;5088271;28;20390;-70
2021/12/21 12:13:49;;;;;;;;;;;10.00;99.90;;;;;;5090349;28;19932;-70
2021/12/21 12:16:17;;;;;;;;;;;10.40;99.90;;;;;;5096452;28;20496;-70
2021/12/21 12:18:45;;;;;;;;;;;10.70;99.90;;;;;;5091130;28;20015;-71
2021/12/21 12:21:20;;;;;;;;;;;10.70;99.90;;;;;;5092430;27;19923;-70
2021/12/21 12:23:51;;;;;;;;;;;10.50;99.90;;;;;;5090049;27;19942;-71
2021/12/21 12:26:22;;;;;;;;;;;10.40;99.90;;;;;;5087780;28;19930;-71
2021/12/21 12:28:49;;;;;;;;;;;10.60;99.90;;;;;;5092214;28;19930;-70
2021/12/21 12:31:35;;;;;;;;;;;10.60;99.90;;;;;;5098056;27;20018;-71
2021/12/21 12:34:02;;;;;;;;;;;10.30;99.90;;;;;;5089776;28;19930;-70
2021/12/21 12:36:39;;;;;;;;;;;9.90;99.90;;;;;;5094893;28;20566;-71
2021/12/21 12:39:07;;;;;;;;;;;9.80;99.90;;;;;;5096831;28;20050;-70
2021/12/21 12:41:44;;;;;;;;;;;9.50;99.90;;;;;;5091982;28;19946;-70
2021/12/21 12:44:21;;;;;;;;;;;9.30;99.90;;;;;;5103617;28;20494;-68
2021/12/21 12:46:53;;;;;;;;;;;8.40;99.90;;;;;;5089390;27;19928;-68
2021/12/21 12:49:24;;;;;;;;;;;8.00;99.90;;;;;;5107159;28;19967;-68
2021/12/21 12:51:51;;;;;;;;;;;7.90;99.90;;;;;;5094908;27;19923;-68
2021/12/21 12:54:25;;;;;;;;;;;7.90;99.90;;;;;;5098094;28;19962;-69
2021/12/21 12:56:52;;;;;;;;;;;8.30;99.90;;;;;;5100649;28;20448;-69
2021/12/21 12:59:19;;;;;;;;;;;8.30;99.90;;;;;;5089635;28;19931;-69
2021/12/21 13:01:48;;;;;;;;;;;8.00;99.90;;;;;;5095219;28;19939;-68
2021/12/21 13:04:17;;;;;;;;;;;8.00;99.90;;;;;;5090773;28;19935;-68
2021/12/21 13:06:46;;;;;;;;;;;8.00;99.90;;;;;;5100540;28;20437;-68
2021/12/21 13:09:14;;;;;;;;;;;8.30;99.90;;;;;;5098547;28;19929;-68
2021/12/21 13:11:41;;;;;;;;;;;8.70;99.90;;;;;;5096380;27;19924;-68
2021/12/21 13:14:09;;;;;;;;;;;8.60;99.90;;;;;;5102107;28;19924;-69
2021/12/21 13:16:37;;;;;;;;;;;8.00;99.90;;;;;;5097967;28;19934;-68
2021/12/21 13:19:08;;;;;;;;;;;7.00;99.90;;;;;;5092876;28;19928;-69
2021/12/21 13:21:37;;;;;;;;;;;6.20;99.90;;;;;;5101844;28;19924;-67
2021/12/21 13:24:20;;;;;;;;;;;5.50;99.90;;;;;;5097494;28;19928;-67
2021/12/21 13:26:54;;;;;;;;;;;4.80;99.90;;;;;;5094815;27;19924;-68
2021/12/21 13:29:23;;;;;;;;;;;4.30;99.90;;;;;;5103614;28;19930;-68
2021/12/21 13:31:51;;;;;;;;;;;3.90;99.90;;;;;;5090725;28;20063;-63
2021/12/21 13:34:18;;;;;;;;;;;3.70;99.90;;;;;;5097805;28;20442;-66
2021/12/21 13:36:48;;;;;;;;;;;3.40;99.90;;;;;;5106197;28;19924;-62
2021/12/21 13:39:20;;;;;;;;;;;3.30;99.90;;;;;;5095869;28;19924;-65
2021/12/21 13:41:54;;;;;;;;;;;3.30;99.90;;;;;;5090472;28;19926;-65
2021/12/21 13:44:29;;;;;;;;;;;3.10;99.90;;;;;;5096722;28;19924;-65
2021/12/21 13:46:57;;;;;;;;;;;3.10;99.90;;;;;;5101527;28;20030;-65
2021/12/21 13:50:08;;;;;;;;;;;3.00;99.90;;;;;;5099802;28;19919;-66
2021/12/21 13:52:38;;;;;;;;;;;2.90;99.90;;;;;;5066619;28;19959;-66
2021/12/21 13:55:05;;;;;;;;;;;2.80;99.90;;;;;;5044283;28;19920;-68
2021/12/21 13:57:32;;;;;;;;;;;2.70;99.90;;;;;;5057370;28;20464;-66
2021/12/21 14:00:06;;;;;;;;;;;2.60;99.90;;;;;;5063851;28;19959;-66
2021/12/21 14:02:35;;;;;;;;;;;2.60;99.90;;;;;;5051804;28;19920;-67
2021/12/21 14:05:03;;;;;;;;;;;2.50;99.90;;;;;;5065124;28;19935;-66
2021/12/21 14:07:36;;;;;;;;;;;2.40;99.90;;;;;;5045763;28;19979;-66
2021/12/21 14:10:11;;;;;;;;;;;2.40;99.90;;;;;;5045786;28;19926;-66
2021/12/21 14:12:53;;;;;;;;;;;2.30;99.90;;;;;;5058784;28;19924;-67
2021/12/21 14:15:20;;;;;;;;;;;2.30;99.90;;;;;;5051912;28;20015;-66
2021/12/21 14:17:46;;;;;;;;;;;2.20;99.90;;;;;;5063299;28;19971;-65
2021/12/21 14:20:18;;;;;;;;;;;2.20;99.90;;;;;;5066240;28;19920;-66
2021/12/21 14:22:44;;;;;;;;;;;2.10;99.90;;;;;;5056072;28;20019;-66
2021/12/21 14:25:12;;;;;;;;;;;2.10;99.90;;;;;;5063793;28;19924;-66
2021/12/21 14:27:39;;;;;;;;;;;2.00;99.90;;;;;;5054183;28;19955;-66
2021/12/21 14:30:10;;;;;;;;;;;1.90;99.90;;;;;;5079515;28;19920;-66
2021/12/21 14:32:53;;;;;;;;;;;1.90;99.90;;;;;;5092940;28;20046;-68
2021/12/21 14:35:22;;;;;;;;;;;1.90;99.90;;;;;;5096411;28;19924;-66
2021/12/21 14:37:49;;;;;;;;;;;1.80;99.90;;;;;;5091759;28;20022;-66
2021/12/21 14:40:18;;;;;;;;;;;1.70;99.90;;;;;;5091813;28;19939;-66
2021/12/21 14:42:49;;;;;;;;;;;1.60;99.90;;;;;;5097223;28;19975;-66
2021/12/21 14:45:16;;;;;;;;;;;1.50;99.90;;;;;;5093945;28;19920;-66
2021/12/21 14:47:42;;;;;;;;;;;1.50;99.90;;;;;;5090354;28;19920;-66
2021/12/21 14:50:10;;;;;;;;;;;1.40;99.90;;;;;;5099864;28;19934;-66
2021/12/21 14:52:49;;;;;;;;;;;1.30;99.90;;;;;;5098296;28;19939;-66
2021/12/21 14:55:21;;;;;;;;;;;1.30;99.90;;;;;;5100244;28;19972;-66
2021/12/21 14:57:59;;;;;;;;;;;1.10;99.90;;;;;;5103283;28;19930;-66
2021/12/21 15:00:27;;;;;;;;;;;1.00;99.90;;;;;;5095068;28;19963;-66
2021/12/21 15:02:55;;;;;;;;;;;0.90;99.90;;;;;;5093706;28;19927;-66
2021/12/21 15:05:24;;;;;;;;;;;0.80;99.90;;;;;;5094664;28;19928;-66
2021/12/21 15:07:51;;;;;;;;;;;0.70;99.90;;;;;;5104435;27;19925;-66
2021/12/21 15:10:19;;;;;;;;;;;0.60;99.90;;;;;;5102097;27;19924;-66
2021/12/21 15:12:46;;;;;;;;;;;0.50;99.90;;;;;;5096799;28;19924;-65
2021/12/21 15:15:14;;;;;;;;;;;0.30;99.90;;;;;;5095015;28;19999;-66
2021/12/21 15:17:45;;;;;;;;;;;0.10;99.90;;;;;;5089548;28;20380;-66
2021/12/21 15:20:12;;;;;;;;;;;0.00;99.90;;;;;;5094601;28;19927;-66
2021/12/21 15:22:39;;;;;;;;;;;-0.30;99.90;;;;;;5099369;28;19920;-66
2021/12/21 15:25:06;;;;;;;;;;;-0.50;99.90;;;;;;5091353;28;20384;-66
2021/12/21 15:27:33;;;;;;;;;;;-0.70;99.90;;;;;;5092200;28;19920;-66
2021/12/21 15:30:03;;;;;;;;;;;-0.80;99.90;;;;;;5104923;28;20014;-67
2021/12/21 15:32:30;;;;;;;;;;;-0.90;99.90;;;;;;5097372;28;19966;-67
2021/12/21 15:34:59;;;;;;;;;;;-1.00;99.90;;;;;;5093843;28;20032;-66
2021/12/21 15:37:26;;;;;;;;;;;-1.10;99.90;;;;;;5090112;28;20514;-66
2021/12/21 15:39:53;;;;;;;;;;;-1.30;99.90;;;;;;5098509;28;19924;-68
2021/12/21 15:42:23;;;;;;;;;;;-1.50;99.90;;;;;;5094804;27;19920;-68
2021/12/21 15:44:51;;;;;;;;;;;-1.70;99.90;;;;;;5095316;28;20366;-66
2021/12/21 15:47:18;;;;;;;;;;;-1.90;99.90;;;;;;5096214;28;20371;-68
2021/12/21 15:49:46;;;;;;;;;;;-2.10;99.90;;;;;;5096438;28;19923;-67
2021/12/21 15:52:13;;;;;;;;;;;-2.30;99.90;;;;;;5090563;28;19926;-67
2021/12/21 15:54:40;;;;;;;;;;;-2.40;99.90;;;;;;5096271;28;19920;-67
2021/12/21 15:57:09;;;;;;;;;;;-2.50;99.90;;;;;;5103051;27;20019;-66